aviador You're here:

SCDA Decoded Metar

IQUIQUE in CHILE
Report Time2018-02-20 13:00:00
UTC Time2018-02-20 13:52:33
Flight Rules vfr VFR
Wind290° at 03 kt
W.Decomp.*RWY 01: 0.7 kt HW 2.9 kt LCW
W.Rank290° ranks 30
Current wind is below 290° avg. (4.8)
Visibility9999 m
Phenomena:N/A
Clouds:N/A
Expected CloudBase > 3,200 ft AGL from Temp-Dew spread
CeilingNone
Temp22°C (ISA +7)
Dew Point14°C (61% RH)
QNH1014 hPa
Density Alt1,207 ft
Elevation171 ft
Report Wrong Elevation
Raw Report
SCDA 201300Z 29003KT CAVOK 22/14 Q1014=

Extra information for SCDA:More info

Metar Taf Metar & Taf Last 4 Metars F.Rules Stats Wind Profile Meteogram Temp Stats Airport Information Weather charts Add Link Nearby VenuesMetar ALERT Operation Metar Decoded Social comments